createdAt,value
2018-09-10T00:01:49.862Z,19.70
2018-09-10T00:04:20.809Z,19.70
2018-09-10T00:06:51.659Z,19.60
2018-09-10T00:09:22.765Z,19.70
2018-09-10T00:11:53.711Z,19.80
2018-09-10T00:14:24.565Z,19.70
2018-09-10T00:16:55.399Z,19.50
2018-09-10T00:19:26.337Z,19.50
2018-09-10T00:21:57.430Z,19.50
2018-09-10T00:24:28.338Z,19.50
2018-09-10T00:26:59.260Z,19.50
2018-09-10T00:29:30.121Z,19.60
2018-09-10T00:32:00.985Z,19.60
2018-09-10T00:34:31.944Z,19.70
2018-09-10T00:37:03.001Z,19.60
2018-09-10T00:39:33.994Z,19.50
2018-09-10T00:42:05.039Z,19.50
2018-09-10T00:44:35.915Z,19.60
2018-09-10T00:47:06.860Z,19.50
2018-09-10T00:49:37.730Z,19.50
2018-09-10T00:52:08.723Z,19.40
2018-09-10T00:54:39.763Z,19.40
2018-09-10T00:57:10.638Z,19.40
2018-09-10T00:59:41.477Z,19.40
2018-09-10T01:02:12.397Z,19.40
2018-09-10T01:04:43.229Z,19.40
2018-09-10T01:07:14.074Z,19.30
2018-09-10T01:09:44.891Z,19.20
2018-09-10T01:12:15.733Z,19.20
2018-09-10T01:14:46.598Z,19.20
2018-09-10T01:17:17.422Z,19.30
2018-09-10T01:19:48.352Z,19.20
2018-09-10T01:22:19.315Z,19.20
2018-09-10T01:24:50.230Z,19.10
2018-09-10T01:27:21.193Z,19.10
2018-09-10T01:29:52.021Z,19.00
2018-09-10T01:32:22.817Z,19.00
2018-09-10T01:34:58.728Z,19.00
2018-09-10T01:37:29.546Z,19.00
2018-09-10T01:40:00.693Z,19.00
2018-09-10T01:42:32.040Z,19.00
2018-09-10T01:45:03.127Z,19.00
2018-09-10T01:47:34.101Z,19.00
2018-09-10T01:50:05.334Z,19.00
2018-09-10T01:52:36.229Z,18.80
2018-09-10T01:55:07.171Z,18.70
2018-09-10T01:57:38.170Z,18.90
2018-09-10T02:00:09.198Z,18.90
2018-09-10T02:02:40.087Z,19.00
2018-09-10T02:05:10.956Z,19.00
2018-09-10T02:07:42.076Z,18.90
2018-09-10T02:10:12.996Z,19.00
2018-09-10T02:12:43.819Z,19.00
2018-09-10T02:15:15.062Z,18.90
2018-09-10T02:17:46.041Z,18.90
2018-09-10T02:20:16.950Z,18.90
2018-09-10T02:22:47.960Z,18.80
2018-09-10T02:25:18.935Z,18.80
2018-09-10T02:27:49.896Z,18.70
2018-09-10T02:30:20.653Z,18.60
2018-09-10T02:32:51.608Z,18.50
2018-09-10T02:35:22.529Z,18.40
2018-09-10T02:37:53.793Z,18.40
2018-09-10T02:40:24.629Z,18.50
2018-09-10T02:42:55.608Z,18.60
2018-09-10T02:45:26.519Z,18.60
2018-09-10T02:47:57.434Z,18.50
2018-09-10T02:50:28.378Z,18.40
2018-09-10T02:52:59.300Z,18.30
2018-09-10T02:55:30.241Z,18.20
2018-09-10T02:58:01.250Z,18.30
2018-09-10T03:00:32.180Z,18.10
2018-09-10T03:03:03.017Z,17.90
2018-09-10T03:05:34.039Z,17.80
2018-09-10T03:08:04.997Z,17.90
2018-09-10T03:10:35.951Z,17.90
2018-09-10T03:13:07.209Z,18.00
2018-09-10T03:15:38.077Z,18.00
2018-09-10T03:18:09.094Z,17.90
2018-09-10T03:20:40.213Z,17.90
2018-09-10T03:23:11.221Z,17.90
2018-09-10T03:25:42.089Z,17.80
2018-09-10T03:28:12.918Z,17.90
2018-09-10T03:30:43.910Z,17.90
2018-09-10T03:33:14.994Z,18.00
2018-09-10T03:35:46.037Z,17.90
2018-09-10T03:38:17.183Z,17.90
2018-09-10T03:40:48.601Z,17.90
2018-09-10T03:43:19.591Z,17.80
2018-09-10T03:45:50.755Z,17.70
2018-09-10T03:48:21.770Z,17.60
2018-09-10T03:50:52.696Z,17.50
2018-09-10T03:53:23.598Z,17.40
2018-09-10T03:55:54.469Z,17.50
2018-09-10T03:58:25.358Z,17.60
2018-09-10T04:00:56.286Z,17.70
2018-09-10T04:03:27.091Z,17.70
2018-09-10T04:05:58.069Z,17.60
2018-09-10T04:08:28.911Z,17.60
2018-09-10T04:10:59.775Z,17.50
2018-09-10T04:13:30.780Z,17.30
2018-09-10T04:16:02.493Z,17.20
2018-09-10T04:18:33.508Z,17.30
2018-09-10T04:21:04.498Z,17.40
2018-09-10T04:23:35.372Z,17.40
2018-09-10T04:26:06.377Z,17.40
2018-09-10T04:28:37.060Z,17.40
2018-09-10T04:31:07.914Z,17.40
2018-09-10T04:33:38.893Z,17.30
2018-09-10T04:36:09.781Z,17.30
2018-09-10T04:38:41.083Z,17.30
2018-09-10T04:41:12.079Z,17.40
2018-09-10T04:43:42.957Z,17.50
2018-09-10T04:46:13.816Z,17.60
2018-09-10T04:48:44.669Z,17.80
2018-09-10T04:51:15.500Z,17.90
2018-09-10T04:53:46.368Z,18.00
2018-09-10T04:56:17.370Z,18.00
2018-09-10T04:58:48.314Z,18.20
2018-09-10T05:01:19.518Z,18.40
2018-09-10T05:03:51.044Z,18.50
2018-09-10T05:06:21.939Z,18.60
2018-09-10T05:08:52.858Z,18.90
2018-09-10T05:11:23.776Z,19.10
2018-09-10T05:13:54.657Z,19.40
2018-09-10T05:16:25.557Z,19.70
2018-09-10T05:18:56.853Z,20.10
2018-09-10T05:21:27.677Z,20.30
2018-09-10T05:23:58.552Z,20.60
2018-09-10T05:26:29.434Z,20.90
2018-09-10T05:29:00.302Z,21.20
2018-09-10T05:31:31.242Z,21.40
2018-09-10T05:34:02.176Z,21.60
2018-09-10T05:36:33.068Z,21.90
2018-09-10T05:39:04.700Z,22.10
2018-09-10T05:41:35.744Z,22.20
2018-09-10T05:44:06.588Z,22.20
2018-09-10T05:46:37.441Z,22.30
2018-09-10T05:49:08.410Z,22.60
2018-09-10T05:51:39.497Z,23.00
2018-09-10T05:54:10.537Z,23.20
2018-09-10T05:56:41.775Z,23.30
2018-09-10T05:59:12.666Z,23.60
2018-09-10T06:01:43.576Z,23.60
2018-09-10T06:04:14.447Z,23.60
2018-09-10T06:06:45.409Z,24.00
2018-09-10T06:09:16.228Z,24.40
2018-09-10T06:11:47.306Z,24.70
2018-09-10T06:14:18.236Z,25.00
2018-09-10T06:16:49.292Z,25.00
2018-09-10T06:19:20.124Z,25.00
2018-09-10T06:21:51.016Z,25.30
2018-09-10T06:24:21.960Z,25.50
2018-09-10T06:26:52.888Z,25.80
2018-09-10T06:29:23.857Z,26.00
2018-09-10T06:31:54.775Z,26.10
2018-09-10T06:34:25.782Z,26.20
2018-09-10T06:36:56.709Z,26.50
2018-09-10T06:39:27.578Z,26.50
2018-09-10T06:41:58.510Z,26.80
2018-09-10T06:44:29.458Z,26.80
2018-09-10T06:47:00.342Z,27.10
2018-09-10T06:49:31.325Z,27.00
2018-09-10T06:52:02.381Z,27.10
2018-09-10T06:54:33.302Z,27.40
2018-09-10T06:57:04.278Z,27.60
2018-09-10T06:59:35.187Z,27.90
2018-09-10T07:02:06.106Z,28.20
2018-09-10T07:04:37.005Z,28.60
2018-09-10T07:07:07.990Z,28.80
2018-09-10T07:09:38.898Z,29.30
2018-09-10T07:12:09.769Z,29.50
2018-09-10T07:14:40.660Z,30.00
2018-09-10T07:17:11.546Z,29.40
2018-09-10T07:19:42.476Z,29.20
2018-09-10T07:22:13.363Z,29.50
2018-09-10T07:24:44.577Z,29.90
2018-09-10T07:27:15.502Z,29.90
2018-09-10T07:29:46.382Z,29.80
2018-09-10T07:32:17.422Z,29.70
2018-09-10T07:34:48.348Z,29.50
2018-09-10T07:37:19.209Z,29.40
2018-09-10T07:39:50.117Z,29.70
2018-09-10T07:42:20.988Z,29.90
2018-09-10T07:44:51.885Z,30.00
2018-09-10T07:47:22.769Z,29.90
2018-09-10T07:49:53.846Z,30.50
2018-09-10T07:52:24.719Z,30.30
2018-09-10T07:54:55.619Z,30.60
2018-09-10T07:57:26.626Z,30.70
2018-09-10T07:59:57.516Z,30.60
2018-09-10T08:02:28.453Z,30.70
2018-09-10T08:04:59.394Z,30.70
2018-09-10T08:07:30.281Z,30.50
2018-09-10T08:10:01.066Z,30.50
2018-09-10T08:12:32.030Z,30.40
2018-09-10T08:15:03.085Z,30.90
2018-09-10T08:17:34.041Z,31.60
2018-09-10T08:20:05.496Z,31.70
2018-09-10T08:22:36.416Z,31.60
2018-09-10T08:25:07.461Z,31.30
2018-09-10T08:27:38.312Z,31.40
2018-09-10T08:30:09.725Z,32.00
2018-09-10T08:32:40.685Z,32.00
2018-09-10T08:35:11.828Z,32.60
2018-09-10T08:37:42.809Z,32.70
2018-09-10T08:40:13.857Z,32.60
2018-09-10T08:42:44.934Z,33.00
2018-09-10T08:45:15.694Z,33.50
2018-09-10T08:47:46.596Z,34.10
2018-09-10T08:50:17.626Z,34.60
2018-09-10T08:52:48.822Z,35.10
2018-09-10T08:55:19.696Z,35.50
2018-09-10T08:57:50.569Z,35.50
2018-09-10T09:00:21.555Z,35.60
2018-09-10T09:02:52.376Z,36.10
2018-09-10T09:05:23.393Z,36.50
2018-09-10T09:07:54.249Z,36.90
2018-09-10T09:10:25.231Z,37.00
2018-09-10T09:12:56.148Z,35.90
2018-09-10T09:15:27.289Z,35.70
2018-09-10T09:17:58.739Z,35.60
2018-09-10T09:20:29.616Z,35.50
2018-09-10T09:23:00.544Z,35.40
2018-09-10T09:25:31.386Z,35.60
2018-09-10T09:28:02.232Z,36.00
2018-09-10T09:30:33.290Z,35.90
2018-09-10T09:33:04.473Z,35.80
2018-09-10T09:35:40.297Z,35.60
2018-09-10T09:38:16.187Z,35.60
2018-09-10T09:40:52.238Z,35.70
2018-09-10T09:43:28.171Z,35.70
2018-09-10T09:46:04.998Z,35.20
2018-09-10T09:48:36.064Z,35.30
2018-09-10T09:51:07.024Z,35.50
2018-09-10T09:53:38.152Z,35.60
2018-09-10T09:56:09.092Z,35.60
2018-09-10T09:58:40.846Z,35.90
2018-09-10T10:01:17.543Z,36.50
2018-09-10T10:03:54.220Z,37.20
2018-09-10T10:06:25.957Z,37.30
2018-09-10T10:08:57.038Z,37.50
2018-09-10T10:11:27.881Z,37.40
2018-09-10T10:13:58.782Z,36.70
2018-09-10T10:16:29.731Z,36.60
2018-09-10T10:19:00.689Z,36.30
2018-09-10T10:21:31.604Z,35.90
2018-09-10T10:24:02.423Z,36.20
2018-09-10T10:26:33.396Z,36.20
2018-09-10T10:29:04.362Z,36.20
2018-09-10T10:31:35.988Z,36.30
2018-09-10T10:34:06.798Z,36.10
2018-09-10T10:36:37.673Z,36.00
2018-09-10T10:39:09.187Z,36.10
2018-09-10T10:41:40.078Z,36.00
2018-09-10T10:44:11.002Z,35.90
2018-09-10T10:46:41.942Z,35.90
2018-09-10T10:49:12.886Z,36.00
2018-09-10T10:51:43.834Z,36.20
2018-09-10T10:54:14.741Z,36.30
2018-09-10T10:56:45.707Z,36.20
2018-09-10T10:59:16.563Z,36.30
2018-09-10T11:01:47.484Z,36.50
2018-09-10T11:04:18.395Z,36.30
2018-09-10T11:06:50.223Z,36.00
2018-09-10T11:09:21.220Z,36.00
2018-09-10T11:11:52.139Z,35.80
2018-09-10T11:14:23.007Z,36.10
2018-09-10T11:16:53.916Z,36.00
2018-09-10T11:19:24.838Z,35.80
2018-09-10T11:21:55.731Z,35.60
2018-09-10T11:24:26.748Z,35.50
2018-09-10T11:26:57.670Z,35.30
2018-09-10T11:29:28.625Z,34.90
2018-09-10T11:32:00.160Z,34.60
2018-09-10T11:34:31.056Z,34.70
2018-09-10T11:37:02.028Z,34.70
2018-09-10T11:39:33.072Z,34.60
2018-09-10T11:42:04.188Z,34.70
2018-09-10T11:44:35.329Z,34.60
2018-09-10T11:47:06.605Z,34.70
2018-09-10T11:49:37.523Z,34.80
2018-09-10T11:52:08.503Z,34.70
2018-09-10T11:54:39.400Z,34.30
2018-09-10T11:57:10.286Z,34.50
2018-09-10T11:59:41.238Z,34.20
2018-09-10T12:02:12.228Z,34.10
2018-09-10T12:04:43.081Z,34.00
2018-09-10T12:07:13.969Z,33.80
2018-09-10T12:09:44.989Z,33.30
2018-09-10T12:12:15.903Z,32.60
2018-09-10T12:14:47.200Z,32.20
2018-09-10T12:17:18.294Z,31.90
2018-09-10T12:19:49.468Z,31.80
2018-09-10T12:22:20.364Z,31.50
2018-09-10T12:24:51.346Z,31.40
2018-09-10T12:27:22.184Z,31.40
2018-09-10T12:29:53.076Z,31.50
2018-09-10T12:32:24.168Z,31.30
2018-09-10T12:34:55.175Z,31.30
2018-09-10T12:37:26.117Z,31.00
2018-09-10T12:39:57.065Z,30.80
2018-09-10T12:42:28.061Z,30.70
2018-09-10T12:44:58.927Z,30.70
2018-09-10T12:47:30.304Z,30.70
2018-09-10T12:50:01.290Z,30.70
2018-09-10T12:52:32.279Z,30.30
2018-09-10T12:55:03.402Z,30.30
2018-09-10T12:57:34.294Z,30.40
2018-09-10T13:00:05.791Z,30.40
2018-09-10T13:02:36.768Z,30.40
2018-09-10T13:05:07.749Z,30.40
2018-09-10T13:07:38.765Z,30.40
2018-09-10T13:10:09.634Z,30.30
2018-09-10T13:12:40.754Z,30.30
2018-09-10T13:15:11.704Z,30.20
2018-09-10T13:17:42.955Z,30.20
2018-09-10T13:20:13.869Z,29.90
2018-09-10T13:22:44.802Z,29.90
2018-09-10T13:25:15.685Z,29.90
2018-09-10T13:27:46.576Z,30.00
2018-09-10T13:30:17.563Z,30.10
2018-09-10T13:32:48.691Z,30.00
2018-09-10T13:35:19.646Z,29.70
2018-09-10T13:37:50.614Z,29.70
2018-09-10T13:40:21.516Z,29.60
2018-09-10T13:42:52.371Z,29.60
2018-09-10T13:45:23.364Z,29.40
2018-09-10T13:47:54.224Z,29.40
2018-09-10T13:50:25.140Z,29.40
2018-09-10T13:52:56.057Z,29.50
2018-09-10T13:55:26.976Z,29.60
2018-09-10T13:57:57.864Z,29.50
2018-09-10T14:00:28.842Z,29.40
2018-09-10T14:02:59.769Z,29.40
2018-09-10T14:05:30.898Z,29.50
2018-09-10T14:08:01.852Z,29.30
2018-09-10T14:10:32.802Z,29.40
2018-09-10T14:13:03.614Z,29.30
2018-09-10T14:15:34.789Z,29.50
2018-09-10T14:18:05.687Z,29.40
2018-09-10T14:20:36.626Z,29.20
2018-09-10T14:23:07.635Z,28.90
2018-09-10T14:25:38.532Z,28.90
2018-09-10T14:28:09.742Z,28.90
2018-09-10T14:30:41.022Z,28.80
2018-09-10T14:33:11.923Z,28.60
2018-09-10T14:35:42.827Z,28.70
2018-09-10T14:38:13.759Z,28.70
2018-09-10T14:40:44.680Z,28.70
2018-09-10T14:43:18.508Z,28.60
2018-09-10T14:45:49.581Z,28.70
2018-09-10T14:48:20.582Z,28.60
2018-09-10T14:50:52.054Z,28.60
2018-09-10T14:53:23.781Z,28.50
2018-09-10T14:55:54.656Z,28.40
2018-09-10T14:58:25.638Z,28.40
2018-09-10T15:00:56.578Z,28.40
2018-09-10T15:03:27.499Z,28.30
2018-09-10T15:05:58.639Z,28.20
2018-09-10T15:08:29.722Z,28.30
2018-09-10T15:11:01.030Z,28.40
2018-09-10T15:13:31.984Z,28.30
2018-09-10T15:16:02.903Z,28.30
2018-09-10T15:18:33.957Z,28.30
2018-09-10T15:21:04.782Z,28.30
2018-09-10T15:23:35.747Z,28.20
2018-09-10T15:26:06.701Z,28.10
2018-09-10T15:28:37.670Z,28.10
2018-09-10T15:31:08.703Z,28.00
2018-09-10T15:33:39.623Z,27.90
2018-09-10T15:36:10.463Z,27.80
2018-09-10T15:38:41.544Z,27.80
2018-09-10T15:41:12.460Z,27.80
2018-09-10T15:43:43.414Z,27.80
2018-09-10T15:46:14.325Z,27.80
2018-09-10T15:48:45.307Z,27.80
2018-09-10T15:51:16.323Z,27.80
2018-09-10T15:53:47.229Z,27.70
2018-09-10T15:56:18.187Z,27.80
2018-09-10T15:58:49.556Z,27.70
2018-09-10T16:01:20.562Z,27.60
2018-09-10T16:03:51.586Z,27.30
2018-09-10T16:06:22.501Z,27.40
2018-09-10T16:08:53.517Z,27.50
2018-09-10T16:11:24.501Z,27.60
2018-09-10T16:13:55.481Z,27.50
2018-09-10T16:16:26.418Z,27.40
2018-09-10T16:18:57.389Z,27.10
2018-09-10T16:21:28.370Z,26.80
2018-09-10T16:23:59.421Z,26.50
2018-09-10T16:26:30.321Z,26.50
2018-09-10T16:29:01.251Z,26.60
2018-09-10T16:31:32.206Z,26.60
2018-09-10T16:34:03.459Z,26.70
2018-09-10T16:36:34.439Z,26.80
2018-09-10T16:39:07.908Z,26.90
2018-09-10T16:41:38.925Z,26.90
2018-09-10T16:44:09.962Z,27.00
2018-09-10T16:46:40.870Z,26.60
2018-09-10T16:49:11.872Z,26.30
2018-09-10T16:51:42.895Z,26.00
2018-09-10T16:54:14.008Z,25.90
2018-09-10T16:56:44.987Z,25.90
2018-09-10T16:59:15.930Z,25.90
2018-09-10T17:01:47.179Z,26.00
2018-09-10T17:04:18.241Z,26.00
2018-09-10T17:06:49.450Z,26.00
2018-09-10T17:09:20.942Z,26.00
2018-09-10T17:11:51.989Z,26.00
2018-09-10T17:14:23.146Z,26.00
2018-09-10T17:16:54.628Z,26.00
2018-09-10T17:19:25.904Z,26.00
2018-09-10T17:21:57.086Z,25.90
2018-09-10T17:24:28.240Z,25.70
2018-09-10T17:26:59.524Z,25.70
2018-09-10T17:29:30.895Z,25.50
2018-09-10T17:32:01.939Z,25.30
2018-09-10T17:34:33.012Z,25.10
2018-09-10T17:37:04.145Z,25.00
2018-09-10T17:39:35.271Z,24.90
2018-09-10T17:42:06.424Z,24.90
2018-09-10T17:44:38.291Z,24.80
2018-09-10T17:47:09.522Z,24.60
2018-09-10T17:49:40.477Z,24.50
2018-09-10T17:52:11.848Z,24.40
2018-09-10T17:54:43.084Z,24.30
2018-09-10T17:57:14.136Z,24.30
2018-09-10T17:59:45.564Z,24.40
2018-09-10T18:02:16.834Z,24.30
2018-09-10T18:04:48.492Z,24.30
2018-09-10T18:07:19.661Z,24.40
2018-09-10T18:09:51.001Z,24.30
2018-09-10T18:12:22.155Z,23.90
2018-09-10T18:14:54.203Z,23.80
2018-09-10T18:17:25.192Z,23.70
2018-09-10T18:19:56.762Z,23.70
2018-09-10T18:22:27.975Z,23.70
2018-09-10T18:24:59.055Z,23.70
2018-09-10T18:27:30.165Z,23.70
2018-09-10T18:30:01.346Z,23.70
2018-09-10T18:32:32.447Z,23.70
2018-09-10T18:35:03.371Z,23.70
2018-09-10T18:37:34.562Z,23.70
2018-09-10T18:40:05.711Z,23.80
2018-09-10T18:42:36.595Z,23.80
2018-09-10T18:45:07.663Z,23.80
2018-09-10T18:47:38.686Z,23.60
2018-09-10T18:50:09.664Z,23.60
2018-09-10T18:52:40.792Z,23.60
2018-09-10T18:55:19.207Z,23.60
2018-09-10T18:57:50.370Z,23.40
2018-09-10T19:00:21.544Z,23.30
2018-09-10T19:02:53.364Z,23.20
2018-09-10T19:05:24.392Z,23.20
2018-09-10T19:07:55.954Z,23.30
2018-09-10T19:10:27.102Z,23.30
2018-09-10T19:12:59.200Z,23.30
2018-09-10T19:15:30.560Z,23.20
2018-09-10T19:18:01.758Z,23.10
2018-09-10T19:20:33.285Z,23.10
2018-09-10T19:23:04.465Z,23.10
2018-09-10T19:25:35.540Z,23.00
2018-09-10T19:28:06.634Z,23.10
2018-09-10T19:30:37.782Z,23.10
2018-09-10T19:33:08.991Z,23.00
2018-09-10T19:35:40.502Z,23.00
2018-09-10T19:38:11.756Z,22.90
2018-09-10T19:40:43.161Z,23.00
2018-09-10T19:43:14.145Z,22.90
2018-09-10T19:45:45.217Z,22.90
2018-09-10T19:48:16.745Z,22.90
2018-09-10T19:50:48.634Z,22.90
2018-09-10T19:53:20.543Z,22.80
2018-09-10T19:55:52.245Z,22.80
2018-09-10T19:58:24.266Z,22.80
2018-09-10T20:00:56.997Z,22.70
2018-09-10T20:03:28.994Z,22.70
2018-09-10T20:06:00.506Z,22.60
2018-09-10T20:08:31.689Z,22.50
2018-09-10T20:11:03.017Z,22.50
2018-09-10T20:13:34.144Z,22.50
2018-09-10T20:16:05.391Z,22.50
2018-09-10T20:18:36.531Z,22.50
2018-09-10T20:21:08.621Z,22.50
2018-09-10T20:23:40.169Z,22.50
2018-09-10T20:26:11.195Z,22.50
2018-09-10T20:28:42.954Z,22.40
2018-09-10T20:31:14.349Z,22.40
2018-09-10T20:33:50.357Z,22.30
2018-09-10T20:36:21.322Z,22.30
2018-09-10T20:38:52.392Z,22.40
2018-09-10T20:41:23.578Z,22.40
2018-09-10T20:43:54.923Z,22.30
2018-09-10T20:46:26.156Z,22.20
2018-09-10T20:48:57.347Z,22.20
2018-09-10T20:51:28.358Z,22.20
2018-09-10T20:53:59.374Z,22.20
2018-09-10T20:56:30.886Z,22.30
2018-09-10T20:59:01.893Z,22.30
2018-09-10T21:01:32.821Z,22.30
2018-09-10T21:04:04.291Z,22.30
2018-09-10T21:06:35.444Z,22.30
2018-09-10T21:09:08.853Z,22.20
2018-09-10T21:11:39.795Z,22.20
2018-09-10T21:14:10.811Z,22.20
2018-09-10T21:16:42.860Z,22.20
2018-09-10T21:19:15.630Z,22.10
2018-09-10T21:21:49.118Z,22.10
2018-09-10T21:24:20.253Z,22.10
2018-09-10T21:26:51.316Z,22.10
2018-09-10T21:29:23.086Z,22.10
2018-09-10T21:31:54.130Z,22.10
2018-09-10T21:34:25.000Z,22.20
2018-09-10T21:36:56.340Z,22.30
2018-09-10T21:39:27.310Z,22.30
2018-09-10T21:41:58.311Z,22.30
2018-09-10T21:44:29.438Z,22.30
2018-09-10T21:47:00.422Z,22.40
2018-09-10T21:49:31.385Z,22.50
2018-09-10T21:52:02.459Z,22.50
2018-09-10T21:54:33.389Z,22.50
2018-09-10T21:57:04.464Z,22.40
2018-09-10T21:59:35.419Z,22.40
2018-09-10T22:02:06.383Z,22.40
2018-09-10T22:04:37.449Z,22.40
2018-09-10T22:07:08.515Z,22.40
2018-09-10T22:09:39.504Z,22.40
2018-09-10T22:12:10.692Z,22.40
2018-09-10T22:14:41.719Z,22.40
2018-09-10T22:17:12.629Z,22.40
2018-09-10T22:19:43.740Z,22.40
2018-09-10T22:22:14.675Z,22.40
2018-09-10T22:24:45.691Z,22.40
2018-09-10T22:27:16.647Z,22.30
2018-09-10T22:29:47.657Z,22.30
2018-09-10T22:32:18.656Z,22.20
2018-09-10T22:34:49.606Z,22.10
2018-09-10T22:37:20.744Z,22.00
2018-09-10T22:39:51.979Z,21.90
2018-09-10T22:42:22.965Z,21.90
2018-09-10T22:44:53.885Z,21.80
2018-09-10T22:47:24.887Z,21.70
2018-09-10T22:49:55.815Z,21.70
2018-09-10T22:52:26.766Z,21.60
2018-09-10T22:54:58.201Z,21.60
2018-09-10T22:57:29.173Z,21.60
2018-09-10T23:00:00.077Z,21.50
2018-09-10T23:02:31.390Z,21.50
2018-09-10T23:05:02.349Z,21.50
2018-09-10T23:07:33.544Z,21.50
2018-09-10T23:10:04.608Z,21.40
2018-09-10T23:12:35.685Z,21.30
2018-09-10T23:15:06.804Z,21.30
2018-09-10T23:17:37.740Z,21.40
2018-09-10T23:20:09.412Z,21.40
2018-09-10T23:22:40.315Z,21.40
2018-09-10T23:25:11.533Z,21.30
2018-09-10T23:27:42.488Z,21.30
2018-09-10T23:30:13.719Z,21.30
2018-09-10T23:32:44.600Z,21.30
2018-09-10T23:35:15.557Z,21.20
2018-09-10T23:37:46.545Z,21.20
2018-09-10T23:40:17.469Z,21.10
2018-09-10T23:42:48.429Z,21.00
2018-09-10T23:45:19.624Z,21.00
2018-09-10T23:47:50.563Z,21.10
2018-09-10T23:50:21.455Z,21.10
2018-09-10T23:52:52.607Z,21.10
2018-09-10T23:55:23.586Z,21.20
2018-09-10T23:57:54.626Z,21.20
